Langley Air Force Base
KLFI : rendu visible

Aérodrome :











RETROUVEZ-NOUS SUR...

 
LOGIN :

S'inscrire | Disclaimer

   EN    FR    IT 

 









Légende :    VFR   VFR Marginal   IFR   IFR Intensif   IFR Très Intensif
Visi : 
Plafond : 
>= 8 km
>= 3000ft
5 à 8 km
1000 à 3000 ft
1500m à 5 km
500 à 1000 ft
800 à 1500m
200 à 500 ft
< 800m
< 200 ft
Symboles :   Orages  Brouillard  Fortes neiges  Fortes précipitations  Vent > 20 kt






- Altitude de l'aérodrome : 11 ft


KLFI - Langley Air Force Base

DERNIER METAR :
  • 171156Z 36019G27KT 10SM OVC012 07/05 A3010 RMK AO2A PK WND 35027/33 SLP199 60000 T00660049 10074 20065 55000

METARs EXPIRÉS :
  • 171056Z AUTO 35017G26KT 10SM OVC011 07/06 A3009 RMK AO2 PK WND 35028/33 SLP196 T00690055
  • 170956Z 36021G27KT 10SM OVC010 07/07 A3009 RMK AO2A PK WND 35028/36 SLP196 T00740065

TAF TAF KLFI
Valide du 17 à 10h jusqu'au 18 à 16h UTC


171000Z 1710/1816 01020G30KT 9999 OVC010 510008 QNH2989INS
TEMPO 1710/1715 OVC008
BECMG 1800/1801 02020G30KT 8000 -SHRA BKN006 OVC020 510008 QNH2980INS
BECMG 1812/1813 36015G25KT 8000 SHRA BKN010 OVC025 QNH2975INS TX10/1716Z TN07/1710Z



MET'MAP, la Météo Aéronautique d'un coup d'oeil ! - Copyright ORBIFLY Décembre 2007 - Disclaimer

ORBIFLY MET'MAP TEAM :

Programmation & Développement : Alexandra Zaïnal
Conception & Développement : Baudouin d'Aumeries
Co-Programmation & Développement : Marc-Olivier Méhu
Soutien technique & logistique : Manuel Goepfert

Contact : metmap@orbifly.com




SOURCES & CREDITS :

   NOAA       Earth
Advisory